KGRD

Details ICAO KGRD
Name GREENWOOD CO
Region United States
Timezone America/New_York (UTC-4.0)
Plans Departing 5
Arriving 3
Stats Elevation 631 ft / 192 m (AMSL)
Location 34.248731° -82.159070°
Runways 1
Magnetic Variation 6.758° W
Sunrise 2018-05-27 10:21:07 UTC / 2018-05-27 06:21:07 Local
Sunset 2018-05-28 00:33:24 UTC / 2018-05-27 20:33:24 Local
Advertisement - Login to hide

Runways

ID Width Length Bearing (true) Bearing (mag) Surface Threshold Offset Overrun Length
09 100 ft / 30 m 4,994 ft / 1,522 m 85.17° 91.93° Asphalt 0 ft / 0 m 0 ft / 0 m
27 100 ft / 30 m 4,994 ft / 1,522 m 265.18° 271.94° Asphalt 0 ft / 0 m 0 ft / 0 m

Map

Weather


0- 5 10 15 20 25 30 35+ Temperature / ° C

Clouds and Precipitation
Forecast for 2018-05-27 18:00 UTC. Updated 3 hours ago

Ground ~20,000 ft ~40,000 ft Winds

METAR

KGRD 271956Z AUTO 09005KT 7SM CLR 28/20 A2997 RMK AO2 SLP141 T02780200

TAF

Not found

Frequencies

Recorded 121.12 MHz ASOS
Approach 120.60 MHz GREER APP/DEP
Unicom 122.80 MHz CTAF/UNICOM
Warning: Do not use this data for real-world aviation or navigation. No guarantee of current accuracy is given.